sensor_id;sensor_type;location;lat;lon;timestamp;temperature;humidity
63802;DHT22;49949;43.060;25.624;2023-02-28T00:01:38;7.50;99.90
63802;DHT22;49949;43.060;25.624;2023-02-28T00:04:05;7.50;99.90
63802;DHT22;49949;43.060;25.624;2023-02-28T00:06:36;7.50;99.90
63802;DHT22;49949;43.060;25.624;2023-02-28T00:09:02;7.40;99.90
63802;DHT22;49949;43.060;25.624;2023-02-28T00:12:02;7.40;99.90
63802;DHT22;49949;43.060;25.624;2023-02-28T00:14:36;7.50;99.90
63802;DHT22;49949;43.060;25.624;2023-02-28T00:17:02;7.50;99.90
63802;DHT22;49949;43.060;25.624;2023-02-28T00:19:40;7.50;99.90
63802;DHT22;49949;43.060;25.624;2023-02-28T00:22:07;7.50;99.90
63802;DHT22;49949;43.060;25.624;2023-02-28T00:24:33;7.60;99.90
63802;DHT22;49949;43.060;25.624;2023-02-28T00:26:58;7.50;99.90
63802;DHT22;49949;43.060;25.624;2023-02-28T00:29:24;7.60;99.90
63802;DHT22;49949;43.060;25.624;2023-02-28T00:31:52;7.60;99.90
63802;DHT22;49949;43.060;25.624;2023-02-28T00:34:54;7.60;99.90
63802;DHT22;49949;43.060;25.624;2023-02-28T00:37:26;7.60;99.90
63802;DHT22;49949;43.060;25.624;2023-02-28T00:39:51;7.50;99.90
63802;DHT22;49949;43.060;25.624;2023-02-28T00:42:32;7.50;99.90
63802;DHT22;49949;43.060;25.624;2023-02-28T00:44:57;7.40;99.90
63802;DHT22;49949;43.060;25.624;2023-02-28T00:47:23;7.40;99.90
63802;DHT22;49949;43.060;25.624;2023-02-28T00:49:49;7.40;99.90
63802;DHT22;49949;43.060;25.624;2023-02-28T00:52:15;7.40;99.90
63802;DHT22;49949;43.060;25.624;2023-02-28T00:54:42;7.50;99.90
63802;DHT22;49949;43.060;25.624;2023-02-28T00:57:08;7.50;99.90
63802;DHT22;49949;43.060;25.624;2023-02-28T00:59:42;7.50;99.90
63802;DHT22;49949;43.060;25.624;2023-02-28T01:02:07;7.60;99.90
63802;DHT22;49949;43.060;25.624;2023-02-28T01:04:33;7.60;99.90
63802;DHT22;49949;43.060;25.624;2023-02-28T01:07:09;7.60;99.90
63802;DHT22;49949;43.060;25.624;2023-02-28T01:09:41;7.60;99.90
63802;DHT22;49949;43.060;25.624;2023-02-28T01:12:17;7.60;99.90
63802;DHT22;49949;43.060;25.624;2023-02-28T01:14:45;7.50;99.90
63802;DHT22;49949;43.060;25.624;2023-02-28T01:17:15;7.50;99.90
63802;DHT22;49949;43.060;25.624;2023-02-28T01:22:55;7.60;99.90
63802;DHT22;49949;43.060;25.624;2023-02-28T01:25:21;7.60;99.90
63802;DHT22;49949;43.060;25.624;2023-02-28T01:27:50;7.60;99.90
63802;DHT22;49949;43.060;25.624;2023-02-28T01:30:27;7.60;99.90
63802;DHT22;49949;43.060;25.624;2023-02-28T01:35:35;7.60;99.90
63802;DHT22;49949;43.060;25.624;2023-02-28T01:38:02;7.70;99.90
63802;DHT22;49949;43.060;25.624;2023-02-28T01:40:32;7.60;99.90
63802;DHT22;49949;43.060;25.624;2023-02-28T01:46:01;7.50;99.90
63802;DHT22;49949;43.060;25.624;2023-02-28T01:48:32;7.50;99.90
63802;DHT22;49949;43.060;25.624;2023-02-28T01:51:04;7.60;99.90
63802;DHT22;49949;43.060;25.624;2023-02-28T01:53:39;7.60;99.90
63802;DHT22;49949;43.060;25.624;2023-02-28T01:56:24;7.60;99.90
63802;DHT22;49949;43.060;25.624;2023-02-28T01:58:57;7.60;99.90
63802;DHT22;49949;43.060;25.624;2023-02-28T02:01:29;7.60;99.90
63802;DHT22;49949;43.060;25.624;2023-02-28T02:04:12;7.60;99.90
63802;DHT22;49949;43.060;25.624;2023-02-28T02:06:51;7.60;99.90
63802;DHT22;49949;43.060;25.624;2023-02-28T02:09:43;7.60;99.90
63802;DHT22;49949;43.060;25.624;2023-02-28T02:15:44;7.60;99.90
63802;DHT22;49949;43.060;25.624;2023-02-28T02:45:33;7.50;99.90
63802;DHT22;49949;43.060;25.624;2023-02-28T02:48:03;7.50;99.90
63802;DHT22;49949;43.060;25.624;2023-02-28T02:50:54;7.50;99.90
63802;DHT22;49949;43.060;25.624;2023-02-28T02:56:26;7.50;99.90
63802;DHT22;49949;43.060;25.624;2023-02-28T02:59:28;7.50;99.90
63802;DHT22;49949;43.060;25.624;2023-02-28T03:01:59;7.50;99.90
63802;DHT22;49949;43.060;25.624;2023-02-28T03:04:30;7.50;99.90
63802;DHT22;49949;43.060;25.624;2023-02-28T03:07:34;7.50;99.90
63802;DHT22;49949;43.060;25.624;2023-02-28T03:10:00;7.40;99.90
63802;DHT22;49949;43.060;25.624;2023-02-28T03:13:05;7.50;99.90
63802;DHT22;49949;43.060;25.624;2023-02-28T03:16:12;7.40;99.90
63802;DHT22;49949;43.060;25.624;2023-02-28T03:28:09;7.30;99.90
63802;DHT22;49949;43.060;25.624;2023-02-28T03:30:54;7.20;99.90
63802;DHT22;49949;43.060;25.624;2023-02-28T03:36:37;7.20;99.90
63802;DHT22;49949;43.060;25.624;2023-02-28T03:39:28;7.30;99.90
63802;DHT22;49949;43.060;25.624;2023-02-28T03:42:02;7.30;99.90
63802;DHT22;49949;43.060;25.624;2023-02-28T03:44:51;7.20;99.90
63802;DHT22;49949;43.060;25.624;2023-02-28T03:53:13;7.10;99.90
63802;DHT22;49949;43.060;25.624;2023-02-28T03:56:22;7.10;99.90
63802;DHT22;49949;43.060;25.624;2023-02-28T04:04:05;7.10;99.90
63802;DHT22;49949;43.060;25.624;2023-02-28T04:06:32;7.20;99.90
63802;DHT22;49949;43.060;25.624;2023-02-28T04:08:59;7.10;99.90
63802;DHT22;49949;43.060;25.624;2023-02-28T04:11:38;7.10;99.90
63802;DHT22;49949;43.060;25.624;2023-02-28T04:14:05;7.10;99.90
63802;DHT22;49949;43.060;25.624;2023-02-28T04:19:55;7.10;99.90
63802;DHT22;49949;43.060;25.624;2023-02-28T04:22:29;7.20;99.90
63802;DHT22;49949;43.060;25.624;2023-02-28T04:25:13;7.20;99.90
63802;DHT22;49949;43.060;25.624;2023-02-28T04:27:40;7.20;99.90
63802;DHT22;49949;43.060;25.624;2023-02-28T04:30:06;7.20;99.90
63802;DHT22;49949;43.060;25.624;2023-02-28T04:32:33;7.20;99.90
63802;DHT22;49949;43.060;25.624;2023-02-28T04:34:59;7.30;99.90
63802;DHT22;49949;43.060;25.624;2023-02-28T04:37:24;7.30;99.90
63802;DHT22;49949;43.060;25.624;2023-02-28T04:39:54;7.30;99.90
63802;DHT22;49949;43.060;25.624;2023-02-28T04:42:20;7.30;99.90
63802;DHT22;49949;43.060;25.624;2023-02-28T04:44:46;7.30;99.90
63802;DHT22;49949;43.060;25.624;2023-02-28T04:47:13;7.30;99.90
63802;DHT22;49949;43.060;25.624;2023-02-28T04:49:39;7.30;99.90
63802;DHT22;49949;43.060;25.624;2023-02-28T04:52:06;7.30;99.90
63802;DHT22;49949;43.060;25.624;2023-02-28T04:54:33;7.30;99.90
63802;DHT22;49949;43.060;25.624;2023-02-28T04:56:59;7.30;99.90
63802;DHT22;49949;43.060;25.624;2023-02-28T04:59:31;7.30;99.90
63802;DHT22;49949;43.060;25.624;2023-02-28T05:02:58;7.40;99.90
63802;DHT22;49949;43.060;25.624;2023-02-28T05:05:54;7.30;99.90
63802;DHT22;49949;43.060;25.624;2023-02-28T05:08:20;7.20;99.90
63802;DHT22;49949;43.060;25.624;2023-02-28T05:10:50;7.20;99.90
63802;DHT22;49949;43.060;25.624;2023-02-28T05:13:16;7.20;99.90
63802;DHT22;49949;43.060;25.624;2023-02-28T05:15:42;7.10;99.90
63802;DHT22;49949;43.060;25.624;2023-02-28T05:18:20;7.10;99.90
63802;DHT22;49949;43.060;25.624;2023-02-28T05:20:46;7.10;99.90
63802;DHT22;49949;43.060;25.624;2023-02-28T05:23:13;7.10;99.90
63802;DHT22;49949;43.060;25.624;2023-02-28T05:25:39;7.20;99.90
63802;DHT22;49949;43.060;25.624;2023-02-28T05:28:11;7.10;99.90
63802;DHT22;49949;43.060;25.624;2023-02-28T05:30:37;7.10;99.90
63802;DHT22;49949;43.060;25.624;2023-02-28T05:33:15;7.10;99.90
63802;DHT22;49949;43.060;25.624;2023-02-28T05:35:41;7.10;99.90
63802;DHT22;49949;43.060;25.624;2023-02-28T05:38:09;7.10;99.90
63802;DHT22;49949;43.060;25.624;2023-02-28T05:40:34;7.20;99.90
63802;DHT22;49949;43.060;25.624;2023-02-28T05:43:00;7.20;99.90
63802;DHT22;49949;43.060;25.624;2023-02-28T05:45:27;7.30;99.90
63802;DHT22;49949;43.060;25.624;2023-02-28T05:47:55;7.30;99.90
63802;DHT22;49949;43.060;25.624;2023-02-28T05:50:21;7.40;99.90
63802;DHT22;49949;43.060;25.624;2023-02-28T05:52:52;7.40;99.90
63802;DHT22;49949;43.060;25.624;2023-02-28T05:55:18;7.50;99.90
63802;DHT22;49949;43.060;25.624;2023-02-28T05:57:44;7.50;99.90
63802;DHT22;49949;43.060;25.624;2023-02-28T06:00:11;7.60;99.90
63802;DHT22;49949;43.060;25.624;2023-02-28T06:05:58;7.70;99.90
63802;DHT22;49949;43.060;25.624;2023-02-28T06:08:29;7.80;99.90
63802;DHT22;49949;43.060;25.624;2023-02-28T06:10:55;7.90;99.90
63802;DHT22;49949;43.060;25.624;2023-02-28T06:13:22;7.90;99.90
63802;DHT22;49949;43.060;25.624;2023-02-28T06:15:48;8.00;99.90
63802;DHT22;49949;43.060;25.624;2023-02-28T06:18:16;8.00;99.90
63802;DHT22;49949;43.060;25.624;2023-02-28T06:21:22;8.00;99.90
63802;DHT22;49949;43.060;25.624;2023-02-28T06:23:58;8.00;99.90
63802;DHT22;49949;43.060;25.624;2023-02-28T06:26:27;8.00;99.90
63802;DHT22;49949;43.060;25.624;2023-02-28T06:28:54;8.00;99.90
63802;DHT22;49949;43.060;25.624;2023-02-28T06:31:20;8.00;99.90
63802;DHT22;49949;43.060;25.624;2023-02-28T06:33:49;8.00;99.90
63802;DHT22;49949;43.060;25.624;2023-02-28T06:36:16;8.00;99.90
63802;DHT22;49949;43.060;25.624;2023-02-28T06:38:44;8.00;99.90
63802;DHT22;49949;43.060;25.624;2023-02-28T06:41:11;8.10;99.90
63802;DHT22;49949;43.060;25.624;2023-02-28T06:43:40;8.10;99.90
63802;DHT22;49949;43.060;25.624;2023-02-28T06:46:17;8.10;99.90
63802;DHT22;49949;43.060;25.624;2023-02-28T06:48:50;8.10;99.90
63802;DHT22;49949;43.060;25.624;2023-02-28T06:51:44;7.90;99.90
63802;DHT22;49949;43.060;25.624;2023-02-28T06:54:29;8.00;99.90
63802;DHT22;49949;43.060;25.624;2023-02-28T06:57:03;8.00;99.90
63802;DHT22;49949;43.060;25.624;2023-02-28T06:59:38;8.00;99.90
63802;DHT22;49949;43.060;25.624;2023-02-28T07:02:07;8.00;99.90
63802;DHT22;49949;43.060;25.624;2023-02-28T07:04:34;8.00;99.90
63802;DHT22;49949;43.060;25.624;2023-02-28T07:07:00;8.10;99.90
63802;DHT22;49949;43.060;25.624;2023-02-28T07:09:26;8.20;99.90
63802;DHT22;49949;43.060;25.624;2023-02-28T07:11:55;8.30;99.90
63802;DHT22;49949;43.060;25.624;2023-02-28T07:14:28;8.30;99.90
63802;DHT22;49949;43.060;25.624;2023-02-28T07:16:54;8.40;99.90
63802;DHT22;49949;43.060;25.624;2023-02-28T07:19:20;8.50;99.90
63802;DHT22;49949;43.060;25.624;2023-02-28T07:21:49;8.50;99.90
63802;DHT22;49949;43.060;25.624;2023-02-28T07:24:15;8.70;99.90
63802;DHT22;49949;43.060;25.624;2023-02-28T07:26:43;8.70;99.90
63802;DHT22;49949;43.060;25.624;2023-02-28T07:29:11;8.80;99.90
63802;DHT22;49949;43.060;25.624;2023-02-28T07:32:01;8.70;99.90
63802;DHT22;49949;43.060;25.624;2023-02-28T07:34:37;8.70;99.90
63802;DHT22;49949;43.060;25.624;2023-02-28T07:37:10;8.70;99.90
63802;DHT22;49949;43.060;25.624;2023-02-28T07:39:39;8.80;99.90
63802;DHT22;49949;43.060;25.624;2023-02-28T07:42:09;8.90;99.90
63802;DHT22;49949;43.060;25.624;2023-02-28T07:44:41;8.80;99.90
63802;DHT22;49949;43.060;25.624;2023-02-28T07:50:42;8.80;99.90
63802;DHT22;49949;43.060;25.624;2023-02-28T07:53:08;8.90;99.90
63802;DHT22;49949;43.060;25.624;2023-02-28T07:55:38;8.90;99.90
63802;DHT22;49949;43.060;25.624;2023-02-28T07:58:05;8.80;99.90
63802;DHT22;49949;43.060;25.624;2023-02-28T08:00:31;8.70;99.90
63802;DHT22;49949;43.060;25.624;2023-02-28T08:02:58;8.80;99.90
63802;DHT22;49949;43.060;25.624;2023-02-28T08:05:24;8.90;99.90
63802;DHT22;49949;43.060;25.624;2023-02-28T08:07:52;8.80;99.90
63802;DHT22;49949;43.060;25.624;2023-02-28T08:10:18;8.80;99.90
63802;DHT22;49949;43.060;25.624;2023-02-28T08:12:46;8.70;99.90
63802;DHT22;49949;43.060;25.624;2023-02-28T08:15:12;8.60;99.90
63802;DHT22;49949;43.060;25.624;2023-02-28T08:17:56;8.70;99.90
63802;DHT22;49949;43.060;25.624;2023-02-28T08:20:26;8.60;99.90
63802;DHT22;49949;43.060;25.624;2023-02-28T08:23:35;8.60;99.90
63802;DHT22;49949;43.060;25.624;2023-02-28T08:26:01;8.60;99.90
63802;DHT22;49949;43.060;25.624;2023-02-28T08:28:28;8.50;99.90
63802;DHT22;49949;43.060;25.624;2023-02-28T08:30:56;8.70;99.90
63802;DHT22;49949;43.060;25.624;2023-02-28T08:36:32;8.50;99.90
63802;DHT22;49949;43.060;25.624;2023-02-28T08:39:01;8.50;99.90
63802;DHT22;49949;43.060;25.624;2023-02-28T08:41:42;8.50;99.90
63802;DHT22;49949;43.060;25.624;2023-02-28T08:44:23;8.50;99.90
63802;DHT22;49949;43.060;25.624;2023-02-28T08:46:54;8.70;99.90
63802;DHT22;49949;43.060;25.624;2023-02-28T08:49:20;8.70;99.90
63802;DHT22;49949;43.060;25.624;2023-02-28T08:51:46;8.90;99.90
63802;DHT22;49949;43.060;25.624;2023-02-28T08:54:12;8.90;99.90
63802;DHT22;49949;43.060;25.624;2023-02-28T08:56:40;8.90;99.90
63802;DHT22;49949;43.060;25.624;2023-02-28T08:59:05;8.90;99.90
63802;DHT22;49949;43.060;25.624;2023-02-28T09:01:31;8.90;99.90
63802;DHT22;49949;43.060;25.624;2023-02-28T09:03:58;9.00;99.90
63802;DHT22;49949;43.060;25.624;2023-02-28T09:06:41;9.10;99.90
63802;DHT22;49949;43.060;25.624;2023-02-28T09:09:07;9.20;99.90
63802;DHT22;49949;43.060;25.624;2023-02-28T09:11:36;9.30;99.90
63802;DHT22;49949;43.060;25.624;2023-02-28T09:14:03;9.50;99.90
63802;DHT22;49949;43.060;25.624;2023-02-28T09:16:30;9.60;99.90
63802;DHT22;49949;43.060;25.624;2023-02-28T09:19:01;9.70;99.90
63802;DHT22;49949;43.060;25.624;2023-02-28T09:21:30;9.80;99.90
63802;DHT22;49949;43.060;25.624;2023-02-28T09:23:57;9.80;99.90
63802;DHT22;49949;43.060;25.624;2023-02-28T09:26:29;9.80;99.90
63802;DHT22;49949;43.060;25.624;2023-02-28T09:28:57;9.80;99.90
63802;DHT22;49949;43.060;25.624;2023-02-28T09:31:28;9.70;99.90
63802;DHT22;49949;43.060;25.624;2023-02-28T09:34:03;9.70;99.90
63802;DHT22;49949;43.060;25.624;2023-02-28T09:36:40;9.80;99.90
63802;DHT22;49949;43.060;25.624;2023-02-28T09:39:06;10.00;99.90
63802;DHT22;49949;43.060;25.624;2023-02-28T09:42:11;10.10;99.90
63802;DHT22;49949;43.060;25.624;2023-02-28T09:44:43;10.20;99.90
63802;DHT22;49949;43.060;25.624;2023-02-28T09:47:29;10.20;99.90
63802;DHT22;49949;43.060;25.624;2023-02-28T09:50:00;10.30;99.90
63802;DHT22;49949;43.060;25.624;2023-02-28T09:52:52;10.30;99.90
63802;DHT22;49949;43.060;25.624;2023-02-28T09:55:50;10.30;99.90
63802;DHT22;49949;43.060;25.624;2023-02-28T10:04:07;10.30;99.90
63802;DHT22;49949;43.060;25.624;2023-02-28T10:06:50;10.30;99.90
63802;DHT22;49949;43.060;25.624;2023-02-28T10:09:52;10.30;99.90
63802;DHT22;49949;43.060;25.624;2023-02-28T10:12:20;10.40;99.90
63802;DHT22;49949;43.060;25.624;2023-02-28T10:14:54;10.30;99.90
63802;DHT22;49949;43.060;25.624;2023-02-28T10:17:39;10.30;99.90
63802;DHT22;49949;43.060;25.624;2023-02-28T10:20:21;10.10;99.90
63802;DHT22;49949;43.060;25.624;2023-02-28T10:25:39;10.10;99.90
63802;DHT22;49949;43.060;25.624;2023-02-28T10:28:14;10.10;99.90
63802;DHT22;49949;43.060;25.624;2023-02-28T10:30:53;10.20;99.90
63802;DHT22;49949;43.060;25.624;2023-02-28T10:35:52;10.00;99.90
63802;DHT22;49949;43.060;25.624;2023-02-28T10:38:22;9.90;99.90
63802;DHT22;49949;43.060;25.624;2023-02-28T10:40:50;9.90;99.90
63802;DHT22;49949;43.060;25.624;2023-02-28T10:46:10;10.20;99.90
63802;DHT22;49949;43.060;25.624;2023-02-28T10:49:00;10.20;99.90
63802;DHT22;49949;43.060;25.624;2023-02-28T10:51:37;10.30;99.90
63802;DHT22;49949;43.060;25.624;2023-02-28T10:54:19;10.30;99.90
63802;DHT22;49949;43.060;25.624;2023-02-28T10:59:35;10.50;99.90
63802;DHT22;49949;43.060;25.624;2023-02-28T11:02:28;10.40;99.90
63802;DHT22;49949;43.060;25.624;2023-02-28T11:04:56;10.50;99.90
63802;DHT22;49949;43.060;25.624;2023-02-28T11:07:26;10.50;99.90
63802;DHT22;49949;43.060;25.624;2023-02-28T11:09:55;10.50;99.90
63802;DHT22;49949;43.060;25.624;2023-02-28T11:12:28;10.60;99.90
63802;DHT22;49949;43.060;25.624;2023-02-28T11:14:58;10.50;99.90
63802;DHT22;49949;43.060;25.624;2023-02-28T11:17:31;10.50;99.90
63802;DHT22;49949;43.060;25.624;2023-02-28T11:20:05;10.50;99.90
63802;DHT22;49949;43.060;25.624;2023-02-28T11:22:39;10.40;99.90
63802;DHT22;49949;43.060;25.624;2023-02-28T11:25:27;10.50;99.90
63802;DHT22;49949;43.060;25.624;2023-02-28T11:28:03;10.40;99.90
63802;DHT22;49949;43.060;25.624;2023-02-28T11:30:35;10.40;99.90
63802;DHT22;49949;43.060;25.624;2023-02-28T11:33:23;10.30;99.90
63802;DHT22;49949;43.060;25.624;2023-02-28T11:35:53;10.30;99.90
63802;DHT22;49949;43.060;25.624;2023-02-28T11:38:28;10.30;99.90
63802;DHT22;49949;43.060;25.624;2023-02-28T11:41:02;10.30;99.90
63802;DHT22;49949;43.060;25.624;2023-02-28T11:46:51;10.20;99.90
63802;DHT22;49949;43.060;25.624;2023-02-28T11:50:10;10.10;99.90
63802;DHT22;49949;43.060;25.624;2023-02-28T11:53:00;10.10;99.90
63802;DHT22;49949;43.060;25.624;2023-02-28T11:55:36;10.10;99.90
63802;DHT22;49949;43.060;25.624;2023-02-28T12:01:29;9.70;99.90
63802;DHT22;49949;43.060;25.624;2023-02-28T12:12:38;9.50;99.90
63802;DHT22;49949;43.060;25.624;2023-02-28T12:18:01;9.50;99.90
63802;DHT22;49949;43.060;25.624;2023-02-28T12:29:28;9.30;99.90
63802;DHT22;49949;43.060;25.624;2023-02-28T12:32:03;9.20;99.90
63802;DHT22;49949;43.060;25.624;2023-02-28T12:34:47;9.20;99.90
63802;DHT22;49949;43.060;25.624;2023-02-28T12:37:47;9.20;99.90
63802;DHT22;49949;43.060;25.624;2023-02-28T12:43:09;9.10;99.90
63802;DHT22;49949;43.060;25.624;2023-02-28T12:45:56;9.10;99.90
63802;DHT22;49949;43.060;25.624;2023-02-28T12:48:41;9.00;99.90
63802;DHT22;49949;43.060;25.624;2023-02-28T12:51:10;9.00;99.90
63802;DHT22;49949;43.060;25.624;2023-02-28T12:56:40;8.90;99.90
63802;DHT22;49949;43.060;25.624;2023-02-28T12:59:30;8.80;99.90
63802;DHT22;49949;43.060;25.624;2023-02-28T13:08:15;8.60;99.90
63802;DHT22;49949;43.060;25.624;2023-02-28T13:10:58;8.40;99.90
63802;DHT22;49949;43.060;25.624;2023-02-28T13:13:37;8.40;99.90
63802;DHT22;49949;43.060;25.624;2023-02-28T13:16:08;8.30;99.90
63802;DHT22;49949;43.060;25.624;2023-02-28T13:18:40;8.30;99.90
63802;DHT22;49949;43.060;25.624;2023-02-28T13:21:23;8.20;99.90
63802;DHT22;49949;43.060;25.624;2023-02-28T13:23:58;8.10;99.90
63802;DHT22;49949;43.060;25.624;2023-02-28T13:37:44;7.80;99.90
63802;DHT22;49949;43.060;25.624;2023-02-28T13:40:35;7.70;99.90
63802;DHT22;49949;43.060;25.624;2023-02-28T13:43:08;7.70;99.90
63802;DHT22;49949;43.060;25.624;2023-02-28T13:45:35;7.60;99.90
63802;DHT22;49949;43.060;25.624;2023-02-28T13:48:19;7.60;99.90
63802;DHT22;49949;43.060;25.624;2023-02-28T13:50:58;7.50;99.90
63802;DHT22;49949;43.060;25.624;2023-02-28T13:53:48;7.50;99.90
63802;DHT22;49949;43.060;25.624;2023-02-28T14:05:25;7.50;99.90
63802;DHT22;49949;43.060;25.624;2023-02-28T14:07:58;7.40;99.90
63802;DHT22;49949;43.060;25.624;2023-02-28T14:10:44;7.40;99.90
63802;DHT22;49949;43.060;25.624;2023-02-28T14:13:41;7.40;99.90
63802;DHT22;49949;43.060;25.624;2023-02-28T14:16:45;7.40;99.90
63802;DHT22;49949;43.060;25.624;2023-02-28T14:27:20;7.40;99.90
63802;DHT22;49949;43.060;25.624;2023-02-28T14:29:56;7.40;99.90
63802;DHT22;49949;43.060;25.624;2023-02-28T14:33:04;7.40;99.90
63802;DHT22;49949;43.060;25.624;2023-02-28T14:38:42;7.30;99.90
63802;DHT22;49949;43.060;25.624;2023-02-28T14:41:29;7.30;99.90
63802;DHT22;49949;43.060;25.624;2023-02-28T14:44:01;7.30;99.90
63802;DHT22;49949;43.060;25.624;2023-02-28T14:46:36;7.30;99.90
63802;DHT22;49949;43.060;25.624;2023-02-28T14:49:12;7.30;99.90
63802;DHT22;49949;43.060;25.624;2023-02-28T14:51:39;7.20;99.90
63802;DHT22;49949;43.060;25.624;2023-02-28T14:54:06;7.20;99.90
63802;DHT22;49949;43.060;25.624;2023-02-28T14:57:29;7.10;99.90
63802;DHT22;49949;43.060;25.624;2023-02-28T15:03:41;7.00;99.90
63802;DHT22;49949;43.060;25.624;2023-02-28T15:06:17;7.00;99.90
63802;DHT22;49949;43.060;25.624;2023-02-28T15:08:44;6.90;99.90
63802;DHT22;49949;43.060;25.624;2023-02-28T15:11:18;6.90;99.90
63802;DHT22;49949;43.060;25.624;2023-02-28T15:13:46;6.90;99.90
63802;DHT22;49949;43.060;25.624;2023-02-28T15:16:29;6.90;99.90
63802;DHT22;49949;43.060;25.624;2023-02-28T15:19:02;6.90;99.90
63802;DHT22;49949;43.060;25.624;2023-02-28T15:21:34;6.90;99.90
63802;DHT22;49949;43.060;25.624;2023-02-28T15:24:15;6.80;99.90
63802;DHT22;49949;43.060;25.624;2023-02-28T15:27:12;6.80;99.90
63802;DHT22;49949;43.060;25.624;2023-02-28T15:29:57;6.70;99.90
63802;DHT22;49949;43.060;25.624;2023-02-28T15:32:36;6.70;99.90
63802;DHT22;49949;43.060;25.624;2023-02-28T15:35:27;6.70;99.90
63802;DHT22;49949;43.060;25.624;2023-02-28T15:40:45;6.60;99.90
63802;DHT22;49949;43.060;25.624;2023-02-28T15:43:39;6.60;99.90
63802;DHT22;49949;43.060;25.624;2023-02-28T15:46:09;6.60;99.90
63802;DHT22;49949;43.060;25.624;2023-02-28T15:48:55;6.50;99.90
63802;DHT22;49949;43.060;25.624;2023-02-28T15:51:35;6.50;99.90
63802;DHT22;49949;43.060;25.624;2023-02-28T15:54:13;6.50;99.90
63802;DHT22;49949;43.060;25.624;2023-02-28T15:56:49;6.50;99.90
63802;DHT22;49949;43.060;25.624;2023-02-28T15:59:21;6.50;99.90
63802;DHT22;49949;43.060;25.624;2023-02-28T16:02:15;6.50;99.90
63802;DHT22;49949;43.060;25.624;2023-02-28T16:07:25;6.60;99.90
63802;DHT22;49949;43.060;25.624;2023-02-28T16:09:51;6.50;99.90
63802;DHT22;49949;43.060;25.624;2023-02-28T16:12:24;6.50;99.90
63802;DHT22;49949;43.060;25.624;2023-02-28T16:14:53;6.50;99.90
63802;DHT22;49949;43.060;25.624;2023-02-28T16:17:24;6.50;99.90
63802;DHT22;49949;43.060;25.624;2023-02-28T16:19:50;6.50;99.90
63802;DHT22;49949;43.060;25.624;2023-02-28T16:22:16;6.40;99.90
63802;DHT22;49949;43.060;25.624;2023-02-28T16:24:43;6.50;99.90
63802;DHT22;49949;43.060;25.624;2023-02-28T16:30:18;6.40;99.90
63802;DHT22;49949;43.060;25.624;2023-02-28T16:32:44;6.40;99.90
63802;DHT22;49949;43.060;25.624;2023-02-28T16:35:21;6.40;99.90
63802;DHT22;49949;43.060;25.624;2023-02-28T16:37:47;6.40;99.90
63802;DHT22;49949;43.060;25.624;2023-02-28T16:40:17;6.40;99.90
63802;DHT22;49949;43.060;25.624;2023-02-28T16:42:44;6.40;99.90
63802;DHT22;49949;43.060;25.624;2023-02-28T16:45:28;6.40;99.90
63802;DHT22;49949;43.060;25.624;2023-02-28T16:47:59;6.40;99.90
63802;DHT22;49949;43.060;25.624;2023-02-28T16:50:27;6.40;99.90
63802;DHT22;49949;43.060;25.624;2023-02-28T16:52:53;6.40;99.90
63802;DHT22;49949;43.060;25.624;2023-02-28T16:55:23;6.40;99.90
63802;DHT22;49949;43.060;25.624;2023-02-28T16:57:58;6.30;99.90
63802;DHT22;49949;43.060;25.624;2023-02-28T17:00:27;6.30;99.90
63802;DHT22;49949;43.060;25.624;2023-02-28T17:02:54;6.30;99.90
63802;DHT22;49949;43.060;25.624;2023-02-28T17:05:22;6.30;99.90
63802;DHT22;49949;43.060;25.624;2023-02-28T17:07:56;6.40;99.90
63802;DHT22;49949;43.060;25.624;2023-02-28T17:10:34;6.30;99.90
63802;DHT22;49949;43.060;25.624;2023-02-28T17:13:01;6.40;99.90
63802;DHT22;49949;43.060;25.624;2023-02-28T17:15:39;6.30;99.90
63802;DHT22;49949;43.060;25.624;2023-02-28T17:18:22;6.40;99.90
63802;DHT22;49949;43.060;25.624;2023-02-28T17:21:00;6.40;99.90
63802;DHT22;49949;43.060;25.624;2023-02-28T17:23:31;6.40;99.90
63802;DHT22;49949;43.060;25.624;2023-02-28T17:25:57;6.40;99.90
63802;DHT22;49949;43.060;25.624;2023-02-28T17:28:23;6.40;99.90
63802;DHT22;49949;43.060;25.624;2023-02-28T17:31:33;6.30;99.90
63802;DHT22;49949;43.060;25.624;2023-02-28T17:34:23;6.40;99.90
63802;DHT22;49949;43.060;25.624;2023-02-28T17:36:54;6.30;99.90
63802;DHT22;49949;43.060;25.624;2023-02-28T17:39:25;6.30;99.90
63802;DHT22;49949;43.060;25.624;2023-02-28T17:41:55;6.30;99.90
63802;DHT22;49949;43.060;25.624;2023-02-28T17:44:21;6.30;99.90
63802;DHT22;49949;43.060;25.624;2023-02-28T17:46:48;6.30;99.90
63802;DHT22;49949;43.060;25.624;2023-02-28T17:49:15;6.30;99.90
63802;DHT22;49949;43.060;25.624;2023-02-28T17:51:41;6.30;99.90
63802;DHT22;49949;43.060;25.624;2023-02-28T17:54:07;6.30;99.90
63802;DHT22;49949;43.060;25.624;2023-02-28T17:56:36;6.30;99.90
63802;DHT22;49949;43.060;25.624;2023-02-28T17:59:05;6.30;99.90
63802;DHT22;49949;43.060;25.624;2023-02-28T18:01:31;6.30;99.90
63802;DHT22;49949;43.060;25.624;2023-02-28T18:03:56;6.30;99.90
63802;DHT22;49949;43.060;25.624;2023-02-28T18:06:34;6.30;99.90
63802;DHT22;49949;43.060;25.624;2023-02-28T18:09:18;6.30;99.90
63802;DHT22;49949;43.060;25.624;2023-02-28T18:12:02;6.30;99.90
63802;DHT22;49949;43.060;25.624;2023-02-28T18:15:10;6.30;99.90
63802;DHT22;49949;43.060;25.624;2023-02-28T18:18:45;6.30;99.90
63802;DHT22;49949;43.060;25.624;2023-02-28T18:22:05;6.30;99.90
63802;DHT22;49949;43.060;25.624;2023-02-28T18:24:47;6.30;99.90
63802;DHT22;49949;43.060;25.624;2023-02-28T18:27:18;6.30;99.90
63802;DHT22;49949;43.060;25.624;2023-02-28T18:30:11;6.30;99.90
63802;DHT22;49949;43.060;25.624;2023-02-28T18:32:42;6.30;99.90
63802;DHT22;49949;43.060;25.624;2023-02-28T18:35:10;6.30;99.90
63802;DHT22;49949;43.060;25.624;2023-02-28T18:37:36;6.30;99.90
63802;DHT22;49949;43.060;25.624;2023-02-28T18:40:12;6.30;99.90
63802;DHT22;49949;43.060;25.624;2023-02-28T18:42:49;6.20;99.90
63802;DHT22;49949;43.060;25.624;2023-02-28T18:45:15;6.20;99.90
63802;DHT22;49949;43.060;25.624;2023-02-28T18:47:55;6.30;99.90
63802;DHT22;49949;43.060;25.624;2023-02-28T18:50:21;6.20;99.90
63802;DHT22;49949;43.060;25.624;2023-02-28T18:52:47;6.30;99.90
63802;DHT22;49949;43.060;25.624;2023-02-28T18:55:13;6.30;99.90
63802;DHT22;49949;43.060;25.624;2023-02-28T18:57:44;6.30;99.90
63802;DHT22;49949;43.060;25.624;2023-02-28T19:00:11;6.20;99.90
63802;DHT22;49949;43.060;25.624;2023-02-28T19:02:42;6.30;99.90
63802;DHT22;49949;43.060;25.624;2023-02-28T19:05:08;6.20;99.90
63802;DHT22;49949;43.060;25.624;2023-02-28T19:07:37;6.30;99.90
63802;DHT22;49949;43.060;25.624;2023-02-28T19:10:05;6.20;99.90
63802;DHT22;49949;43.060;25.624;2023-02-28T19:12:35;6.10;99.90
63802;DHT22;49949;43.060;25.624;2023-02-28T19:15:10;6.20;99.90